sensor_id;sensor_type;location;lat;lon;timestamp;P1;durP1;ratioP1;P2;durP2;ratioP2
20476;SDS011;10397;50.948;11.092;2023-03-31T00:00:43;6.17;;;0.70;;
20476;SDS011;10397;50.948;11.092;2023-03-31T00:03:16;3.13;;;0.87;;
20476;SDS011;10397;50.948;11.092;2023-03-31T00:05:56;4.97;;;0.60;;
20476;SDS011;10397;50.948;11.092;2023-03-31T00:08:26;5.33;;;0.90;;
20476;SDS011;10397;50.948;11.092;2023-03-31T00:10:59;4.00;;;0.97;;
20476;SDS011;10397;50.948;11.092;2023-03-31T00:13:29;3.10;;;0.70;;
20476;SDS011;10397;50.948;11.092;2023-03-31T00:16:05;3.27;;;0.70;;
20476;SDS011;10397;50.948;11.092;2023-03-31T00:18:31;5.00;;;0.60;;
20476;SDS011;10397;50.948;11.092;2023-03-31T00:21:08;7.80;;;1.00;;
20476;SDS011;10397;50.948;11.092;2023-03-31T00:23:38;4.50;;;0.60;;
20476;SDS011;10397;50.948;11.092;2023-03-31T00:26:09;5.77;;;0.70;;
20476;SDS011;10397;50.948;11.092;2023-03-31T00:28:40;2.93;;;0.77;;
20476;SDS011;10397;50.948;11.092;2023-03-31T00:31:11;4.27;;;0.50;;
20476;SDS011;10397;50.948;11.092;2023-03-31T00:33:42;3.37;;;0.83;;
20476;SDS011;10397;50.948;11.092;2023-03-31T00:36:13;4.03;;;0.70;;
20476;SDS011;10397;50.948;11.092;2023-03-31T00:38:50;7.03;;;0.83;;
20476;SDS011;10397;50.948;11.092;2023-03-31T00:41:21;1.57;;;0.40;;
20476;SDS011;10397;50.948;11.092;2023-03-31T00:49:46;4.43;;;0.67;;
20476;SDS011;10397;50.948;11.092;2023-03-31T00:52:22;2.73;;;0.50;;
20476;SDS011;10397;50.948;11.092;2023-03-31T00:54:53;7.73;;;0.97;;
20476;SDS011;10397;50.948;11.092;2023-03-31T00:57:24;2.70;;;0.50;;
20476;SDS011;10397;50.948;11.092;2023-03-31T00:59:56;2.33;;;0.60;;
20476;SDS011;10397;50.948;11.092;2023-03-31T01:02:26;7.83;;;0.80;;
20476;SDS011;10397;50.948;11.092;2023-03-31T01:04:58;4.03;;;0.80;;
20476;SDS011;10397;50.948;11.092;2023-03-31T01:07:35;1.73;;;0.40;;
20476;SDS011;10397;50.948;11.092;2023-03-31T01:10:06;2.77;;;0.70;;
20476;SDS011;10397;50.948;11.092;2023-03-31T01:12:38;3.73;;;0.73;;
20476;SDS011;10397;50.948;11.092;2023-03-31T01:15:08;6.33;;;0.80;;
20476;SDS011;10397;50.948;11.092;2023-03-31T01:17:39;2.73;;;0.50;;
20476;SDS011;10397;50.948;11.092;2023-03-31T01:23:05;2.43;;;0.47;;
20476;SDS011;10397;50.948;11.092;2023-03-31T01:25:54;5.97;;;0.80;;
20476;SDS011;10397;50.948;11.092;2023-03-31T01:34:34;4.93;;;0.83;;
20476;SDS011;10397;50.948;11.092;2023-03-31T01:40:07;4.73;;;0.70;;
20476;SDS011;10397;50.948;11.092;2023-03-31T01:45:36;4.03;;;0.60;;
20476;SDS011;10397;50.948;11.092;2023-03-31T01:48:15;6.20;;;0.60;;
20476;SDS011;10397;50.948;11.092;2023-03-31T01:56:30;2.20;;;0.50;;
20476;SDS011;10397;50.948;11.092;2023-03-31T01:59:07;2.33;;;0.57;;
20476;SDS011;10397;50.948;11.092;2023-03-31T02:05:02;5.10;;;0.60;;
20476;SDS011;10397;50.948;11.092;2023-03-31T02:07:03;2.57;;;0.50;;
20476;SDS011;10397;50.948;11.092;2023-03-31T02:09:34;3.07;;;0.63;;
20476;SDS011;10397;50.948;11.092;2023-03-31T02:12:04;2.13;;;0.47;;
20476;SDS011;10397;50.948;11.092;2023-03-31T02:14:34;5.60;;;0.63;;
20476;SDS011;10397;50.948;11.092;2023-03-31T02:17:04;7.37;;;1.57;;
20476;SDS011;10397;50.948;11.092;2023-03-31T02:19:37;4.83;;;0.80;;
20476;SDS011;10397;50.948;11.092;2023-03-31T02:22:06;3.77;;;0.80;;
20476;SDS011;10397;50.948;11.092;2023-03-31T02:24:36;7.23;;;0.90;;
20476;SDS011;10397;50.948;11.092;2023-03-31T02:27:18;8.60;;;0.53;;
20476;SDS011;10397;50.948;11.092;2023-03-31T02:29:50;4.27;;;0.70;;
20476;SDS011;10397;50.948;11.092;2023-03-31T02:32:22;4.10;;;0.90;;
20476;SDS011;10397;50.948;11.092;2023-03-31T02:34:54;2.17;;;0.40;;
20476;SDS011;10397;50.948;11.092;2023-03-31T02:37:25;3.67;;;0.50;;
20476;SDS011;10397;50.948;11.092;2023-03-31T02:39:56;4.67;;;0.60;;
20476;SDS011;10397;50.948;11.092;2023-03-31T02:42:26;2.73;;;0.37;;
20476;SDS011;10397;50.948;11.092;2023-03-31T02:45:00;2.30;;;0.50;;
20476;SDS011;10397;50.948;11.092;2023-03-31T02:47:33;1.87;;;0.40;;
20476;SDS011;10397;50.948;11.092;2023-03-31T02:50:04;3.43;;;0.40;;
20476;SDS011;10397;50.948;11.092;2023-03-31T02:52:41;2.27;;;0.47;;
20476;SDS011;10397;50.948;11.092;2023-03-31T03:00:52;1.50;;;0.40;;
20476;SDS011;10397;50.948;11.092;2023-03-31T03:03:40;2.10;;;0.47;;
20476;SDS011;10397;50.948;11.092;2023-03-31T03:08:55;4.10;;;0.70;;
20476;SDS011;10397;50.948;11.092;2023-03-31T03:11:50;2.53;;;0.50;;
20476;SDS011;10397;50.948;11.092;2023-03-31T03:14:38;2.00;;;0.43;;
20476;SDS011;10397;50.948;11.092;2023-03-31T03:17:14;2.73;;;0.40;;
20476;SDS011;10397;50.948;11.092;2023-03-31T03:19:54;2.23;;;0.40;;
20476;SDS011;10397;50.948;11.092;2023-03-31T03:22:23;1.57;;;0.30;;
20476;SDS011;10397;50.948;11.092;2023-03-31T03:24:54;3.37;;;0.70;;
20476;SDS011;10397;50.948;11.092;2023-03-31T03:27:26;2.03;;;0.50;;
20476;SDS011;10397;50.948;11.092;2023-03-31T03:29:57;2.77;;;0.30;;
20476;SDS011;10397;50.948;11.092;2023-03-31T03:32:27;1.87;;;0.40;;
20476;SDS011;10397;50.948;11.092;2023-03-31T03:35:00;2.17;;;0.20;;
20476;SDS011;10397;50.948;11.092;2023-03-31T03:37:31;2.43;;;0.60;;
20476;SDS011;10397;50.948;11.092;2023-03-31T03:40:02;2.20;;;0.30;;
20476;SDS011;10397;50.948;11.092;2023-03-31T03:42:35;2.77;;;0.40;;
20476;SDS011;10397;50.948;11.092;2023-03-31T03:45:06;2.27;;;0.30;;
20476;SDS011;10397;50.948;11.092;2023-03-31T03:47:37;2.63;;;0.33;;
20476;SDS011;10397;50.948;11.092;2023-03-31T03:50:08;2.10;;;0.30;;
20476;SDS011;10397;50.948;11.092;2023-03-31T03:52:38;3.63;;;0.50;;
20476;SDS011;10397;50.948;11.092;2023-03-31T03:55:09;2.57;;;0.60;;
20476;SDS011;10397;50.948;11.092;2023-03-31T03:57:40;1.73;;;0.60;;
20476;SDS011;10397;50.948;11.092;2023-03-31T04:00:11;2.03;;;0.53;;
20476;SDS011;10397;50.948;11.092;2023-03-31T04:02:42;3.70;;;0.30;;
20476;SDS011;10397;50.948;11.092;2023-03-31T04:05:13;1.97;;;0.50;;
20476;SDS011;10397;50.948;11.092;2023-03-31T04:07:44;2.50;;;0.57;;
20476;SDS011;10397;50.948;11.092;2023-03-31T04:10:15;4.87;;;0.87;;
20476;SDS011;10397;50.948;11.092;2023-03-31T04:12:46;3.87;;;0.50;;
20476;SDS011;10397;50.948;11.092;2023-03-31T04:15:17;3.43;;;0.53;;
20476;SDS011;10397;50.948;11.092;2023-03-31T04:17:48;3.20;;;0.60;;
20476;SDS011;10397;50.948;11.092;2023-03-31T04:20:19;3.63;;;0.67;;
20476;SDS011;10397;50.948;11.092;2023-03-31T04:22:49;2.53;;;0.40;;
20476;SDS011;10397;50.948;11.092;2023-03-31T04:25:20;1.43;;;0.50;;
20476;SDS011;10397;50.948;11.092;2023-03-31T04:27:51;2.50;;;0.20;;
20476;SDS011;10397;50.948;11.092;2023-03-31T04:30:23;1.50;;;0.40;;
20476;SDS011;10397;50.948;11.092;2023-03-31T04:32:56;5.27;;;0.47;;
20476;SDS011;10397;50.948;11.092;2023-03-31T04:35:27;0.77;;;0.27;;
20476;SDS011;10397;50.948;11.092;2023-03-31T04:37:56;2.27;;;0.50;;
20476;SDS011;10397;50.948;11.092;2023-03-31T04:40:27;1.87;;;0.30;;
20476;SDS011;10397;50.948;11.092;2023-03-31T04:42:58;2.03;;;0.50;;
20476;SDS011;10397;50.948;11.092;2023-03-31T04:45:29;1.87;;;0.30;;
20476;SDS011;10397;50.948;11.092;2023-03-31T04:48:00;1.63;;;0.30;;
20476;SDS011;10397;50.948;11.092;2023-03-31T04:50:32;1.47;;;0.30;;
20476;SDS011;10397;50.948;11.092;2023-03-31T04:53:02;1.97;;;0.40;;
20476;SDS011;10397;50.948;11.092;2023-03-31T04:55:33;2.93;;;0.40;;
20476;SDS011;10397;50.948;11.092;2023-03-31T04:58:03;1.47;;;0.40;;
20476;SDS011;10397;50.948;11.092;2023-03-31T05:00:35;1.07;;;0.40;;
20476;SDS011;10397;50.948;11.092;2023-03-31T05:03:05;1.83;;;0.43;;
20476;SDS011;10397;50.948;11.092;2023-03-31T05:05:36;4.57;;;0.50;;
20476;SDS011;10397;50.948;11.092;2023-03-31T05:08:07;2.10;;;0.53;;
20476;SDS011;10397;50.948;11.092;2023-03-31T05:10:38;2.60;;;0.73;;
20476;SDS011;10397;50.948;11.092;2023-03-31T05:13:10;4.23;;;0.50;;
20476;SDS011;10397;50.948;11.092;2023-03-31T05:15:40;2.57;;;0.50;;
20476;SDS011;10397;50.948;11.092;2023-03-31T05:18:14;2.10;;;0.50;;
20476;SDS011;10397;50.948;11.092;2023-03-31T05:20:44;3.70;;;0.67;;
20476;SDS011;10397;50.948;11.092;2023-03-31T05:23:15;2.33;;;0.47;;
20476;SDS011;10397;50.948;11.092;2023-03-31T05:25:46;2.97;;;0.43;;
20476;SDS011;10397;50.948;11.092;2023-03-31T05:28:17;2.53;;;0.70;;
20476;SDS011;10397;50.948;11.092;2023-03-31T05:30:49;2.20;;;0.40;;
20476;SDS011;10397;50.948;11.092;2023-03-31T05:33:20;3.10;;;0.70;;
20476;SDS011;10397;50.948;11.092;2023-03-31T05:35:51;2.47;;;0.40;;
20476;SDS011;10397;50.948;11.092;2023-03-31T05:38:22;2.77;;;0.60;;
20476;SDS011;10397;50.948;11.092;2023-03-31T05:40:53;5.73;;;0.57;;
20476;SDS011;10397;50.948;11.092;2023-03-31T05:43:23;2.07;;;0.40;;
20476;SDS011;10397;50.948;11.092;2023-03-31T05:45:54;4.27;;;0.63;;
20476;SDS011;10397;50.948;11.092;2023-03-31T05:48:25;2.47;;;0.50;;
20476;SDS011;10397;50.948;11.092;2023-03-31T05:50:56;5.40;;;0.70;;
20476;SDS011;10397;50.948;11.092;2023-03-31T05:53:26;3.40;;;0.57;;
20476;SDS011;10397;50.948;11.092;2023-03-31T05:55:58;3.63;;;0.90;;
20476;SDS011;10397;50.948;11.092;2023-03-31T05:58:28;3.63;;;0.80;;
20476;SDS011;10397;50.948;11.092;2023-03-31T06:03:38;3.60;;;0.83;;
20476;SDS011;10397;50.948;11.092;2023-03-31T06:06:11;4.47;;;0.90;;
20476;SDS011;10397;50.948;11.092;2023-03-31T06:08:42;6.40;;;0.63;;
20476;SDS011;10397;50.948;11.092;2023-03-31T06:11:16;3.33;;;0.70;;
20476;SDS011;10397;50.948;11.092;2023-03-31T06:13:42;2.63;;;0.67;;
20476;SDS011;10397;50.948;11.092;2023-03-31T06:16:13;2.93;;;0.80;;
20476;SDS011;10397;50.948;11.092;2023-03-31T06:18:43;5.53;;;1.30;;
20476;SDS011;10397;50.948;11.092;2023-03-31T06:21:15;5.70;;;1.40;;
20476;SDS011;10397;50.948;11.092;2023-03-31T06:23:45;3.27;;;1.07;;
20476;SDS011;10397;50.948;11.092;2023-03-31T06:26:16;3.10;;;1.00;;
20476;SDS011;10397;50.948;11.092;2023-03-31T06:28:46;3.07;;;0.80;;
20476;SDS011;10397;50.948;11.092;2023-03-31T06:31:18;3.50;;;0.80;;
20476;SDS011;10397;50.948;11.092;2023-03-31T06:33:48;6.53;;;1.00;;
20476;SDS011;10397;50.948;11.092;2023-03-31T06:36:19;5.83;;;1.00;;
20476;SDS011;10397;50.948;11.092;2023-03-31T06:38:52;3.87;;;0.73;;
20476;SDS011;10397;50.948;11.092;2023-03-31T06:41:22;3.97;;;1.20;;
20476;SDS011;10397;50.948;11.092;2023-03-31T06:43:53;4.47;;;0.80;;
20476;SDS011;10397;50.948;11.092;2023-03-31T06:46:24;3.40;;;1.07;;
20476;SDS011;10397;50.948;11.092;2023-03-31T06:48:55;6.90;;;1.33;;
20476;SDS011;10397;50.948;11.092;2023-03-31T06:51:27;4.40;;;0.87;;
20476;SDS011;10397;50.948;11.092;2023-03-31T06:53:57;4.03;;;0.77;;
20476;SDS011;10397;50.948;11.092;2023-03-31T06:56:28;5.23;;;1.13;;
20476;SDS011;10397;50.948;11.092;2023-03-31T06:58:59;2.80;;;0.80;;
20476;SDS011;10397;50.948;11.092;2023-03-31T07:01:30;1.80;;;0.73;;
20476;SDS011;10397;50.948;11.092;2023-03-31T07:04:02;2.77;;;0.63;;
20476;SDS011;10397;50.948;11.092;2023-03-31T07:06:32;2.70;;;0.93;;
20476;SDS011;10397;50.948;11.092;2023-03-31T07:09:02;2.93;;;0.60;;
20476;SDS011;10397;50.948;11.092;2023-03-31T07:11:33;4.93;;;0.60;;
20476;SDS011;10397;50.948;11.092;2023-03-31T07:14:04;3.03;;;0.70;;
20476;SDS011;10397;50.948;11.092;2023-03-31T07:16:35;3.90;;;0.90;;
20476;SDS011;10397;50.948;11.092;2023-03-31T07:19:06;3.80;;;0.63;;
20476;SDS011;10397;50.948;11.092;2023-03-31T07:21:37;2.40;;;0.60;;
20476;SDS011;10397;50.948;11.092;2023-03-31T07:24:08;3.97;;;0.70;;
20476;SDS011;10397;50.948;11.092;2023-03-31T07:26:39;2.90;;;0.60;;
20476;SDS011;10397;50.948;11.092;2023-03-31T07:29:10;3.53;;;0.70;;
20476;SDS011;10397;50.948;11.092;2023-03-31T07:31:42;0.93;;;0.40;;
20476;SDS011;10397;50.948;11.092;2023-03-31T07:34:13;2.17;;;0.37;;
20476;SDS011;10397;50.948;11.092;2023-03-31T07:36:44;3.00;;;0.80;;
20476;SDS011;10397;50.948;11.092;2023-03-31T07:39:15;5.77;;;0.70;;
20476;SDS011;10397;50.948;11.092;2023-03-31T07:41:46;2.30;;;0.50;;
20476;SDS011;10397;50.948;11.092;2023-03-31T07:44:17;3.33;;;0.63;;
20476;SDS011;10397;50.948;11.092;2023-03-31T07:46:48;3.13;;;0.57;;
20476;SDS011;10397;50.948;11.092;2023-03-31T07:49:19;2.40;;;0.50;;
20476;SDS011;10397;50.948;11.092;2023-03-31T07:51:50;1.80;;;0.40;;
20476;SDS011;10397;50.948;11.092;2023-03-31T07:54:21;2.10;;;0.40;;
20476;SDS011;10397;50.948;11.092;2023-03-31T07:56:52;3.70;;;0.70;;
20476;SDS011;10397;50.948;11.092;2023-03-31T07:59:23;1.93;;;0.40;;
20476;SDS011;10397;50.948;11.092;2023-03-31T08:01:54;2.63;;;0.63;;
20476;SDS011;10397;50.948;11.092;2023-03-31T08:04:25;4.53;;;0.50;;
20476;SDS011;10397;50.948;11.092;2023-03-31T08:06:56;1.03;;;0.40;;
20476;SDS011;10397;50.948;11.092;2023-03-31T08:09:27;2.40;;;0.60;;
20476;SDS011;10397;50.948;11.092;2023-03-31T08:11:58;1.37;;;0.53;;
20476;SDS011;10397;50.948;11.092;2023-03-31T08:14:29;5.20;;;0.90;;
20476;SDS011;10397;50.948;11.092;2023-03-31T08:17:00;4.63;;;0.47;;
20476;SDS011;10397;50.948;11.092;2023-03-31T08:19:31;2.23;;;0.50;;
20476;SDS011;10397;50.948;11.092;2023-03-31T08:22:02;3.57;;;0.47;;
20476;SDS011;10397;50.948;11.092;2023-03-31T08:24:33;4.23;;;0.73;;
20476;SDS011;10397;50.948;11.092;2023-03-31T08:27:04;4.67;;;0.83;;
20476;SDS011;10397;50.948;11.092;2023-03-31T08:29:36;5.97;;;0.90;;
20476;SDS011;10397;50.948;11.092;2023-03-31T08:32:06;1.70;;;0.30;;
20476;SDS011;10397;50.948;11.092;2023-03-31T08:34:38;2.60;;;0.40;;
20476;SDS011;10397;50.948;11.092;2023-03-31T08:37:09;3.43;;;0.67;;
20476;SDS011;10397;50.948;11.092;2023-03-31T08:39:39;1.63;;;0.37;;
20476;SDS011;10397;50.948;11.092;2023-03-31T08:42:12;2.07;;;0.40;;
20476;SDS011;10397;50.948;11.092;2023-03-31T08:44:42;2.73;;;0.50;;
20476;SDS011;10397;50.948;11.092;2023-03-31T08:47:19;3.00;;;0.53;;
20476;SDS011;10397;50.948;11.092;2023-03-31T08:49:52;1.73;;;0.40;;
20476;SDS011;10397;50.948;11.092;2023-03-31T08:52:21;1.93;;;0.60;;
20476;SDS011;10397;50.948;11.092;2023-03-31T08:54:50;1.93;;;0.40;;
20476;SDS011;10397;50.948;11.092;2023-03-31T08:57:24;1.43;;;0.40;;
20476;SDS011;10397;50.948;11.092;2023-03-31T08:59:55;2.07;;;0.60;;
20476;SDS011;10397;50.948;11.092;2023-03-31T09:07:39;2.60;;;0.30;;
20476;SDS011;10397;50.948;11.092;2023-03-31T09:10:33;2.20;;;0.63;;
20476;SDS011;10397;50.948;11.092;2023-03-31T09:13:10;1.50;;;0.40;;
20476;SDS011;10397;50.948;11.092;2023-03-31T09:15:47;1.33;;;0.33;;
20476;SDS011;10397;50.948;11.092;2023-03-31T09:21:05;1.47;;;0.77;;
20476;SDS011;10397;50.948;11.092;2023-03-31T09:23:33;0.57;;;0.30;;
20476;SDS011;10397;50.948;11.092;2023-03-31T09:26:02;1.50;;;0.30;;
20476;SDS011;10397;50.948;11.092;2023-03-31T09:28:36;2.00;;;0.40;;
20476;SDS011;10397;50.948;11.092;2023-03-31T09:31:13;1.43;;;0.40;;
20476;SDS011;10397;50.948;11.092;2023-03-31T09:33:45;2.17;;;0.40;;
20476;SDS011;10397;50.948;11.092;2023-03-31T09:36:16;1.60;;;0.40;;
20476;SDS011;10397;50.948;11.092;2023-03-31T09:38:45;2.00;;;0.50;;
20476;SDS011;10397;50.948;11.092;2023-03-31T09:41:16;1.77;;;0.40;;
20476;SDS011;10397;50.948;11.092;2023-03-31T09:43:47;0.63;;;0.40;;
20476;SDS011;10397;50.948;11.092;2023-03-31T09:46:20;1.93;;;0.40;;
20476;SDS011;10397;50.948;11.092;2023-03-31T09:49:02;1.63;;;0.40;;
20476;SDS011;10397;50.948;11.092;2023-03-31T09:51:34;1.93;;;0.90;;
20476;SDS011;10397;50.948;11.092;2023-03-31T09:56:56;2.80;;;1.13;;
20476;SDS011;10397;50.948;11.092;2023-03-31T09:59:33;0.87;;;0.30;;
20476;SDS011;10397;50.948;11.092;2023-03-31T10:02:11;2.47;;;0.60;;
20476;SDS011;10397;50.948;11.092;2023-03-31T10:04:33;2.40;;;0.40;;
20476;SDS011;10397;50.948;11.092;2023-03-31T10:07:04;1.20;;;0.47;;
20476;SDS011;10397;50.948;11.092;2023-03-31T10:09:35;2.63;;;0.73;;
20476;SDS011;10397;50.948;11.092;2023-03-31T10:12:16;1.53;;;0.50;;
20476;SDS011;10397;50.948;11.092;2023-03-31T10:14:46;1.40;;;0.60;;
20476;SDS011;10397;50.948;11.092;2023-03-31T10:17:17;2.43;;;0.70;;
20476;SDS011;10397;50.948;11.092;2023-03-31T10:19:50;4.43;;;0.80;;
20476;SDS011;10397;50.948;11.092;2023-03-31T10:24:50;3.33;;;0.80;;
20476;SDS011;10397;50.948;11.092;2023-03-31T10:27:27;2.30;;;1.20;;
20476;SDS011;10397;50.948;11.092;2023-03-31T10:30:00;2.53;;;0.80;;
20476;SDS011;10397;50.948;11.092;2023-03-31T10:32:28;3.07;;;1.30;;
20476;SDS011;10397;50.948;11.092;2023-03-31T10:35:44;2.87;;;1.37;;
20476;SDS011;10397;50.948;11.092;2023-03-31T10:37:34;3.57;;;1.30;;
20476;SDS011;10397;50.948;11.092;2023-03-31T10:40:12;6.03;;;1.70;;
20476;SDS011;10397;50.948;11.092;2023-03-31T10:42:44;1.10;;;0.80;;
20476;SDS011;10397;50.948;11.092;2023-03-31T10:47:55;0.93;;;0.57;;
20476;SDS011;10397;50.948;11.092;2023-03-31T10:50:29;1.67;;;0.30;;
20476;SDS011;10397;50.948;11.092;2023-03-31T10:53:00;0.40;;;0.13;;
20476;SDS011;10397;50.948;11.092;2023-03-31T11:01:19;1.50;;;0.57;;
20476;SDS011;10397;50.948;11.092;2023-03-31T11:03:57;0.63;;;0.30;;
20476;SDS011;10397;50.948;11.092;2023-03-31T11:06:31;0.23;;;0.20;;
20476;SDS011;10397;50.948;11.092;2023-03-31T11:14:37;0.87;;;0.40;;
20476;SDS011;10397;50.948;11.092;2023-03-31T11:17:24;1.43;;;0.67;;
20476;SDS011;10397;50.948;11.092;2023-03-31T11:19:54;1.33;;;0.70;;
20476;SDS011;10397;50.948;11.092;2023-03-31T11:22:30;3.10;;;0.63;;
20476;SDS011;10397;50.948;11.092;2023-03-31T11:25:19;1.53;;;0.40;;
20476;SDS011;10397;50.948;11.092;2023-03-31T11:30:45;4.40;;;0.50;;
20476;SDS011;10397;50.948;11.092;2023-03-31T11:44:08;1.80;;;0.20;;
20476;SDS011;10397;50.948;11.092;2023-03-31T11:46:43;0.90;;;0.23;;
20476;SDS011;10397;50.948;11.092;2023-03-31T11:49:17;0.97;;;0.20;;
20476;SDS011;10397;50.948;11.092;2023-03-31T11:51:49;1.07;;;0.30;;
20476;SDS011;10397;50.948;11.092;2023-03-31T11:54:27;0.70;;;0.13;;
20476;SDS011;10397;50.948;11.092;2023-03-31T11:56:57;1.10;;;0.30;;
20476;SDS011;10397;50.948;11.092;2023-03-31T11:59:27;0.65;;;0.20;;
20476;SDS011;10397;50.948;11.092;2023-03-31T12:04:42;1.33;;;0.37;;
20476;SDS011;10397;50.948;11.092;2023-03-31T12:07:19;1.98;;;0.40;;
20476;SDS011;10397;50.948;11.092;2023-03-31T12:09:57;2.37;;;0.50;;
20476;SDS011;10397;50.948;11.092;2023-03-31T12:12:26;2.40;;;0.57;;
20476;SDS011;10397;50.948;11.092;2023-03-31T12:15:05;2.50;;;0.53;;
20476;SDS011;10397;50.948;11.092;2023-03-31T12:17:32;1.60;;;0.57;;
20476;SDS011;10397;50.948;11.092;2023-03-31T12:20:04;5.33;;;0.95;;
20476;SDS011;10397;50.948;11.092;2023-03-31T12:22:43;5.67;;;0.90;;
20476;SDS011;10397;50.948;11.092;2023-03-31T12:25:13;3.03;;;0.67;;
20476;SDS011;10397;50.948;11.092;2023-03-31T12:27:44;3.55;;;0.80;;
20476;SDS011;10397;50.948;11.092;2023-03-31T12:33:05;3.13;;;0.70;;
20476;SDS011;10397;50.948;11.092;2023-03-31T12:38:40;3.57;;;0.83;;
20476;SDS011;10397;50.948;11.092;2023-03-31T12:44:23;2.67;;;0.70;;
20476;SDS011;10397;50.948;11.092;2023-03-31T13:01:12;3.37;;;0.90;;
20476;SDS011;10397;50.948;11.092;2023-03-31T13:03:51;3.43;;;0.90;;
20476;SDS011;10397;50.948;11.092;2023-03-31T13:09:00;4.63;;;1.10;;
20476;SDS011;10397;50.948;11.092;2023-03-31T13:16:54;2.20;;;0.37;;
20476;SDS011;10397;50.948;11.092;2023-03-31T13:19:29;2.60;;;0.57;;
20476;SDS011;10397;50.948;11.092;2023-03-31T13:22:00;3.77;;;0.77;;
20476;SDS011;10397;50.948;11.092;2023-03-31T13:24:31;2.77;;;0.72;;
20476;SDS011;10397;50.948;11.092;2023-03-31T13:27:36;2.40;;;0.43;;
20476;SDS011;10397;50.948;11.092;2023-03-31T13:29:53;1.43;;;0.30;;
20476;SDS011;10397;50.948;11.092;2023-03-31T13:32:25;2.15;;;0.28;;
20476;SDS011;10397;50.948;11.092;2023-03-31T13:35:01;0.42;;;0.20;;
20476;SDS011;10397;50.948;11.092;2023-03-31T13:37:35;0.87;;;0.30;;
20476;SDS011;10397;50.948;11.092;2023-03-31T13:40:39;0.73;;;0.40;;
20476;SDS011;10397;50.948;11.092;2023-03-31T13:43:08;0.57;;;0.20;;
20476;SDS011;10397;50.948;11.092;2023-03-31T13:51:14;1.93;;;0.40;;
20476;SDS011;10397;50.948;11.092;2023-03-31T13:53:58;0.40;;;0.20;;
20476;SDS011;10397;50.948;11.092;2023-03-31T13:56:44;1.10;;;0.20;;
20476;SDS011;10397;50.948;11.092;2023-03-31T13:59:27;0.20;;;0.10;;
20476;SDS011;10397;50.948;11.092;2023-03-31T14:05:07;0.90;;;0.20;;
20476;SDS011;10397;50.948;11.092;2023-03-31T14:07:33;2.57;;;0.20;;
20476;SDS011;10397;50.948;11.092;2023-03-31T14:10:02;0.87;;;0.10;;
20476;SDS011;10397;50.948;11.092;2023-03-31T14:12:36;0.95;;;0.17;;
20476;SDS011;10397;50.948;11.092;2023-03-31T14:15:16;1.70;;;0.10;;
20476;SDS011;10397;50.948;11.092;2023-03-31T14:17:38;0.60;;;0.30;;
20476;SDS011;10397;50.948;11.092;2023-03-31T14:23:12;0.73;;;0.13;;
20476;SDS011;10397;50.948;11.092;2023-03-31T14:31:25;1.37;;;0.40;;
20476;SDS011;10397;50.948;11.092;2023-03-31T14:34:15;1.13;;;0.20;;
20476;SDS011;10397;50.948;11.092;2023-03-31T14:37:00;0.60;;;0.10;;
20476;SDS011;10397;50.948;11.092;2023-03-31T14:39:36;1.10;;;0.30;;
20476;SDS011;10397;50.948;11.092;2023-03-31T14:42:09;1.00;;;0.20;;
20476;SDS011;10397;50.948;11.092;2023-03-31T14:44:36;3.27;;;0.43;;
20476;SDS011;10397;50.948;11.092;2023-03-31T14:47:20;0.47;;;0.20;;
20476;SDS011;10397;50.948;11.092;2023-03-31T14:50:07;1.27;;;0.30;;
20476;SDS011;10397;50.948;11.092;2023-03-31T14:52:34;1.07;;;0.33;;
20476;SDS011;10397;50.948;11.092;2023-03-31T14:55:12;1.02;;;0.20;;
20476;SDS011;10397;50.948;11.092;2023-03-31T14:57:37;0.40;;;0.30;;
20476;SDS011;10397;50.948;11.092;2023-03-31T15:00:08;3.73;;;0.43;;
20476;SDS011;10397;50.948;11.092;2023-03-31T15:02:40;1.07;;;0.40;;
20476;SDS011;10397;50.948;11.092;2023-03-31T15:05:57;1.17;;;0.45;;
20476;SDS011;10397;50.948;11.092;2023-03-31T15:07:43;1.20;;;0.40;;
20476;SDS011;10397;50.948;11.092;2023-03-31T15:10:18;1.27;;;0.45;;
20476;SDS011;10397;50.948;11.092;2023-03-31T15:12:48;4.63;;;0.93;;
20476;SDS011;10397;50.948;11.092;2023-03-31T15:15:20;2.02;;;0.45;;
20476;SDS011;10397;50.948;11.092;2023-03-31T15:17:50;2.93;;;0.50;;
20476;SDS011;10397;50.948;11.092;2023-03-31T15:20:34;2.58;;;0.50;;
20476;SDS011;10397;50.948;11.092;2023-03-31T15:23:03;1.20;;;0.40;;
20476;SDS011;10397;50.948;11.092;2023-03-31T15:25:33;5.17;;;0.65;;
20476;SDS011;10397;50.948;11.092;2023-03-31T15:28:05;1.73;;;0.30;;
20476;SDS011;10397;50.948;11.092;2023-03-31T15:30:36;1.82;;;0.40;;
20476;SDS011;10397;50.948;11.092;2023-03-31T15:33:07;1.75;;;0.40;;
20476;SDS011;10397;50.948;11.092;2023-03-31T15:35:38;2.13;;;0.40;;
20476;SDS011;10397;50.948;11.092;2023-03-31T15:38:09;2.02;;;0.35;;
20476;SDS011;10397;50.948;11.092;2023-03-31T15:40:39;1.40;;;0.20;;
20476;SDS011;10397;50.948;11.092;2023-03-31T15:43:15;6.03;;;0.30;;
20476;SDS011;10397;50.948;11.092;2023-03-31T15:45:48;0.63;;;0.17;;
20476;SDS011;10397;50.948;11.092;2023-03-31T15:48:18;2.07;;;0.30;;
20476;SDS011;10397;50.948;11.092;2023-03-31T15:50:50;0.47;;;0.10;;
20476;SDS011;10397;50.948;11.092;2023-03-31T15:55:58;1.23;;;0.40;;
20476;SDS011;10397;50.948;11.092;2023-03-31T15:59:04;2.92;;;0.30;;
20476;SDS011;10397;50.948;11.092;2023-03-31T16:01:15;1.77;;;0.40;;
20476;SDS011;10397;50.948;11.092;2023-03-31T16:03:46;2.62;;;0.30;;
20476;SDS011;10397;50.948;11.092;2023-03-31T16:06:30;1.62;;;0.40;;
20476;SDS011;10397;50.948;11.092;2023-03-31T16:09:04;2.13;;;0.80;;
20476;SDS011;10397;50.948;11.092;2023-03-31T16:11:41;2.72;;;0.65;;
20476;SDS011;10397;50.948;11.092;2023-03-31T16:14:18;2.70;;;0.47;;
20476;SDS011;10397;50.948;11.092;2023-03-31T16:16:53;3.63;;;0.60;;
20476;SDS011;10397;50.948;11.092;2023-03-31T16:19:23;4.00;;;0.87;;
20476;SDS011;10397;50.948;11.092;2023-03-31T16:21:53;2.33;;;0.50;;
20476;SDS011;10397;50.948;11.092;2023-03-31T16:24:33;1.70;;;0.50;;
20476;SDS011;10397;50.948;11.092;2023-03-31T16:27:04;2.07;;;0.40;;
20476;SDS011;10397;50.948;11.092;2023-03-31T16:29:35;1.82;;;0.30;;
20476;SDS011;10397;50.948;11.092;2023-03-31T16:32:07;2.77;;;0.40;;
20476;SDS011;10397;50.948;11.092;2023-03-31T16:37:30;2.73;;;0.50;;
20476;SDS011;10397;50.948;11.092;2023-03-31T16:40:01;2.67;;;0.55;;
20476;SDS011;10397;50.948;11.092;2023-03-31T16:42:31;4.00;;;0.60;;
20476;SDS011;10397;50.948;11.092;2023-03-31T16:45:03;1.10;;;0.50;;
20476;SDS011;10397;50.948;11.092;2023-03-31T16:47:34;4.33;;;0.62;;
20476;SDS011;10397;50.948;11.092;2023-03-31T16:50:06;2.92;;;0.60;;
20476;SDS011;10397;50.948;11.092;2023-03-31T16:52:37;4.10;;;1.17;;
20476;SDS011;10397;50.948;11.092;2023-03-31T16:55:08;2.98;;;0.98;;
20476;SDS011;10397;50.948;11.092;2023-03-31T16:57:39;7.63;;;2.30;;
20476;SDS011;10397;50.948;11.092;2023-03-31T17:00:11;5.47;;;1.57;;
20476;SDS011;10397;50.948;11.092;2023-03-31T17:02:41;5.70;;;2.20;;
20476;SDS011;10397;50.948;11.092;2023-03-31T17:05:12;3.35;;;1.40;;
20476;SDS011;10397;50.948;11.092;2023-03-31T17:07:44;8.03;;;2.20;;
20476;SDS011;10397;50.948;11.092;2023-03-31T17:10:14;4.90;;;1.62;;
20476;SDS011;10397;50.948;11.092;2023-03-31T17:12:45;5.35;;;1.85;;
20476;SDS011;10397;50.948;11.092;2023-03-31T17:15:16;3.23;;;1.00;;
20476;SDS011;10397;50.948;11.092;2023-03-31T17:17:47;5.12;;;0.88;;
20476;SDS011;10397;50.948;11.092;2023-03-31T17:20:19;1.95;;;0.70;;
20476;SDS011;10397;50.948;11.092;2023-03-31T17:22:51;4.40;;;0.60;;